createdAt,value
2022-11-20T00:00:55.775Z,76869.34
2022-11-20T00:03:24.011Z,76873.44
2022-11-20T00:05:51.847Z,76883.63
2022-11-20T00:08:19.672Z,76877.50
2022-11-20T00:10:47.721Z,76877.50
2022-11-20T00:13:16.236Z,76885.66
2022-11-20T00:15:45.365Z,76883.63
2022-11-20T00:18:13.233Z,76885.66
2022-11-20T00:20:40.997Z,76877.50
2022-11-20T00:23:09.028Z,76869.34
2022-11-20T00:25:36.966Z,76861.19
2022-11-20T00:28:05.021Z,76863.25
2022-11-20T00:30:32.891Z,76859.16
2022-11-20T00:33:02.075Z,76865.28
2022-11-20T00:35:29.883Z,76873.44
2022-11-20T00:37:57.660Z,76865.28
2022-11-20T00:40:25.522Z,76873.44
2022-11-20T00:42:53.302Z,76873.44
2022-11-20T00:45:21.145Z,76869.34
2022-11-20T00:47:48.966Z,76875.47
2022-11-20T00:50:18.308Z,76873.44
2022-11-20T00:52:46.091Z,76877.50
2022-11-20T00:55:13.938Z,76877.50
2022-11-20T00:57:41.712Z,76881.59
2022-11-20T01:00:10.619Z,76879.56
2022-11-20T01:02:38.454Z,76879.56
2022-11-20T01:05:06.368Z,76879.56
2022-11-20T01:07:35.703Z,76869.34
2022-11-20T01:10:04.305Z,76869.34
2022-11-20T01:12:32.069Z,76867.31
2022-11-20T01:14:59.882Z,76871.41
2022-11-20T01:17:27.759Z,76859.16
2022-11-20T01:19:55.575Z,76865.28
2022-11-20T01:22:23.384Z,76871.41
2022-11-20T01:24:52.578Z,76871.41
2022-11-20T01:27:20.361Z,76861.19
2022-11-20T01:29:48.204Z,76861.19
2022-11-20T01:32:16.023Z,76853.03
2022-11-20T01:34:43.793Z,76855.09
2022-11-20T01:37:11.555Z,76848.97
2022-11-20T01:39:39.392Z,76853.03
2022-11-20T01:42:26.973Z,76855.09
2022-11-20T01:44:57.431Z,76842.84
2022-11-20T01:47:34.038Z,76838.78
2022-11-20T01:50:06.984Z,76836.72
2022-11-20T01:52:39.249Z,76836.72
2022-11-20T01:55:11.292Z,76838.78
2022-11-20T01:57:42.111Z,76844.88
2022-11-20T02:00:12.873Z,76842.84
2022-11-20T02:02:42.903Z,76848.97
2022-11-20T02:05:18.791Z,76857.13
2022-11-20T02:07:48.465Z,76861.19
2022-11-20T02:10:16.949Z,76853.03
2022-11-20T02:13:03.876Z,76857.13
2022-11-20T02:15:31.760Z,76861.19
2022-11-20T02:17:59.684Z,76859.16
2022-11-20T02:20:27.911Z,76859.16
2022-11-20T02:22:59.861Z,76855.09
2022-11-20T02:25:31.085Z,76857.13
2022-11-20T02:27:58.924Z,76857.13
2022-11-20T02:30:26.809Z,76853.03
2022-11-20T02:32:54.670Z,76848.97
2022-11-20T02:35:44.530Z,76848.97
2022-11-20T02:38:12.730Z,76846.94
2022-11-20T02:40:42.128Z,76838.78
2022-11-20T02:43:10.620Z,76840.81
2022-11-20T02:45:38.961Z,76840.81
2022-11-20T02:48:08.257Z,76846.94
2022-11-20T02:50:39.047Z,76844.88
2022-11-20T02:53:06.914Z,76853.03
2022-11-20T02:55:34.961Z,76865.28
2022-11-20T02:58:04.223Z,76869.34
2022-11-20T03:00:32.934Z,76871.41
2022-11-20T03:03:00.718Z,76861.19
2022-11-20T03:05:28.515Z,76853.03
2022-11-20T03:07:56.354Z,76840.81
2022-11-20T03:10:24.302Z,76832.66
2022-11-20T03:12:56.377Z,76826.53
2022-11-20T03:15:26.081Z,76824.50
2022-11-20T03:17:55.641Z,76828.56
2022-11-20T03:20:23.844Z,76834.69
2022-11-20T03:22:51.975Z,76822.47
2022-11-20T03:25:19.799Z,76820.41
2022-11-20T03:27:47.586Z,76820.41
2022-11-20T03:30:16.007Z,76820.41
2022-11-20T03:32:45.183Z,76820.41
2022-11-20T03:35:13.084Z,76816.34
2022-11-20T03:37:41.046Z,76814.31
2022-11-20T03:40:09.884Z,76814.31
2022-11-20T03:42:49.490Z,76820.41
2022-11-20T03:45:18.577Z,76836.72
2022-11-20T03:47:48.143Z,76832.66
2022-11-20T03:50:16.402Z,76822.47
2022-11-20T03:52:44.576Z,76826.53
2022-11-20T03:55:12.655Z,76828.56
2022-11-20T03:57:40.413Z,76820.41
2022-11-20T04:00:09.292Z,76814.31
2022-11-20T04:02:37.081Z,76836.72
2022-11-20T04:05:06.912Z,76848.97
2022-11-20T04:07:36.500Z,76836.72
2022-11-20T04:10:04.904Z,76832.66
2022-11-20T04:12:34.419Z,76838.78
2022-11-20T04:15:02.315Z,76840.81
2022-11-20T04:17:30.111Z,76836.72
2022-11-20T04:19:57.907Z,76812.25
2022-11-20T04:22:27.131Z,76808.19
2022-11-20T04:24:56.050Z,76816.34
2022-11-20T04:27:23.815Z,76804.09
2022-11-20T04:29:51.667Z,76785.75
2022-11-20T04:32:19.452Z,76787.78
2022-11-20T04:34:47.225Z,76779.63
2022-11-20T04:37:15.051Z,76777.59
2022-11-20T04:39:44.453Z,76767.41
2022-11-20T04:42:26.351Z,76759.25
2022-11-20T04:44:54.430Z,76763.31
2022-11-20T04:47:22.227Z,76771.47
2022-11-20T04:49:50.130Z,76771.47
2022-11-20T04:52:17.983Z,76763.31
2022-11-20T04:54:47.184Z,76767.41
2022-11-20T04:57:16.391Z,76767.41
2022-11-20T04:59:44.339Z,76767.41
2022-11-20T05:02:12.483Z,76775.56
2022-11-20T05:04:40.233Z,76771.47
2022-11-20T05:07:08.151Z,76769.44
2022-11-20T05:09:35.931Z,76767.41
2022-11-20T05:12:05.543Z,76759.25
2022-11-20T05:14:33.405Z,76759.25
2022-11-20T05:17:01.274Z,76759.25
2022-11-20T05:19:29.067Z,76751.09
2022-11-20T05:21:56.929Z,76755.16
2022-11-20T05:24:24.765Z,76759.25
2022-11-20T05:26:52.575Z,76757.19
2022-11-20T05:29:21.915Z,76757.19
2022-11-20T05:31:49.847Z,76759.25
2022-11-20T05:34:17.900Z,76757.19
2022-11-20T05:36:45.731Z,76751.09
2022-11-20T05:39:13.502Z,76749.03
2022-11-20T05:41:41.292Z,76738.84
2022-11-20T05:44:09.291Z,76738.84
2022-11-20T05:46:38.431Z,76740.88
2022-11-20T05:49:06.275Z,76734.78
2022-11-20T05:51:34.147Z,76738.84
2022-11-20T05:54:01.944Z,76738.84
2022-11-20T05:56:29.792Z,76734.78
2022-11-20T05:58:58.129Z,76734.78
2022-11-20T06:01:27.792Z,76738.84
2022-11-20T06:03:57.007Z,76738.84
2022-11-20T06:06:26.218Z,76736.81
2022-11-20T06:08:53.989Z,76736.81
2022-11-20T06:11:21.829Z,76736.81
2022-11-20T06:13:50.518Z,76738.84
2022-11-20T06:16:20.351Z,76738.84
2022-11-20T06:18:48.844Z,76736.81
2022-11-20T06:21:20.455Z,76738.84
2022-11-20T06:23:49.010Z,76740.88
2022-11-20T06:26:18.536Z,76738.84
2022-11-20T06:28:46.986Z,76738.84
2022-11-20T06:31:16.760Z,76736.81
2022-11-20T06:33:45.197Z,76738.84
2022-11-20T06:36:14.701Z,76732.72
2022-11-20T06:38:44.039Z,76722.53
2022-11-20T06:41:14.611Z,76722.53
2022-11-20T06:43:42.616Z,76718.47
2022-11-20T06:46:12.095Z,76720.50
2022-11-20T06:48:40.350Z,76718.47
2022-11-20T06:51:09.532Z,76718.47
2022-11-20T06:53:38.035Z,76720.50
2022-11-20T06:56:08.858Z,76716.41
2022-11-20T06:58:37.578Z,76716.41
2022-11-20T07:01:07.782Z,76718.47
2022-11-20T07:03:35.984Z,76712.34
2022-11-20T07:06:05.117Z,76712.34
2022-11-20T07:08:33.345Z,76706.22
2022-11-20T07:11:02.201Z,76708.25
2022-11-20T07:13:31.949Z,76702.16
2022-11-20T07:16:02.380Z,76687.88
2022-11-20T07:18:30.322Z,76681.75
2022-11-20T07:20:58.149Z,76689.91
2022-11-20T07:23:25.923Z,76694.00
2022-11-20T07:25:53.766Z,76685.81
2022-11-20T07:28:21.537Z,76681.75
2022-11-20T07:30:53.645Z,76683.78
2022-11-20T07:33:21.726Z,76677.69
2022-11-20T07:35:49.567Z,76679.72
2022-11-20T07:38:17.351Z,76685.81
2022-11-20T07:40:45.248Z,76689.91
2022-11-20T07:43:13.030Z,76687.88
2022-11-20T07:45:41.045Z,76683.78
2022-11-20T07:48:10.222Z,76679.72
2022-11-20T07:50:38.039Z,76677.69
2022-11-20T07:53:06.882Z,76673.59
2022-11-20T07:55:35.066Z,76673.59
2022-11-20T07:58:02.896Z,76675.63
2022-11-20T08:00:30.729Z,76665.44
2022-11-20T08:02:58.692Z,76667.47
2022-11-20T08:05:27.826Z,76673.59
2022-11-20T08:07:55.614Z,76669.53
2022-11-20T08:10:23.432Z,76661.38
2022-11-20T08:13:10.159Z,76661.38
2022-11-20T08:15:39.131Z,76651.16
2022-11-20T08:18:31.047Z,76655.25
2022-11-20T08:20:57.814Z,76645.03
2022-11-20T08:23:25.690Z,76649.13
2022-11-20T08:25:53.448Z,76653.19
2022-11-20T08:28:22.699Z,76649.13
2022-11-20T08:30:51.551Z,76649.13
2022-11-20T08:33:20.284Z,76649.13
2022-11-20T08:35:48.147Z,76628.72
2022-11-20T08:38:17.273Z,76616.50
2022-11-20T08:41:06.225Z,76604.28
2022-11-20T08:43:34.594Z,76590.00
2022-11-20T08:46:02.526Z,76577.75
2022-11-20T08:48:30.335Z,76569.59
2022-11-20T08:51:00.490Z,76561.44
2022-11-20T08:53:29.908Z,76551.25
2022-11-20T08:55:59.350Z,76543.09
2022-11-20T08:58:27.755Z,76536.97
2022-11-20T09:00:56.004Z,76522.69
2022-11-20T09:03:28.596Z,76514.53
2022-11-20T09:06:01.215Z,76514.53
2022-11-20T09:08:31.421Z,76510.47
2022-11-20T09:11:00.011Z,76514.53
2022-11-20T09:13:29.456Z,76514.53
2022-11-20T09:15:58.601Z,76514.53
2022-11-20T09:18:27.137Z,76512.50
2022-11-20T09:20:58.894Z,76510.47
2022-11-20T09:23:27.041Z,76500.28
2022-11-20T09:26:00.671Z,76498.22
2022-11-20T09:28:28.516Z,76490.06
2022-11-20T09:30:56.367Z,76490.06
2022-11-20T09:33:24.106Z,76486.00
2022-11-20T09:35:52.005Z,76479.88
2022-11-20T09:38:19.883Z,76463.56
2022-11-20T09:40:55.087Z,76451.34
2022-11-20T09:43:35.747Z,76445.22
2022-11-20T09:46:11.783Z,76432.97
2022-11-20T09:48:52.895Z,76437.06
2022-11-20T09:51:33.705Z,76428.91
2022-11-20T09:54:13.978Z,76416.69
2022-11-20T09:56:45.291Z,76375.91
2022-11-20T09:59:32.501Z,76345.31
2022-11-20T10:02:02.372Z,76324.91
2022-11-20T10:04:36.890Z,76326.97
2022-11-20T10:07:31.935Z,76314.72
2022-11-20T10:10:01.333Z,76261.72
2022-11-20T10:12:41.474Z,76237.25
2022-11-20T10:15:34.169Z,76225.00
2022-11-20T10:18:14.528Z,76237.25
2022-11-20T10:20:48.584Z,76247.44
2022-11-20T10:23:42.934Z,76239.28
2022-11-20T10:26:19.672Z,76257.63
2022-11-20T10:29:00.601Z,76265.78
2022-11-20T10:31:35.351Z,76273.94
2022-11-20T10:34:12.334Z,76237.25
2022-11-20T10:36:46.182Z,76218.91
2022-11-20T10:39:22.111Z,76241.31
2022-11-20T10:41:53.815Z,76249.47
2022-11-20T10:44:37.138Z,76222.97
2022-11-20T10:47:11.845Z,76222.97
2022-11-20T10:49:39.763Z,76225.00
2022-11-20T10:52:15.000Z,76212.78
2022-11-20T10:54:48.652Z,76216.84
2022-11-20T10:57:27.712Z,76208.69
2022-11-20T11:00:07.926Z,76192.41
2022-11-20T11:02:43.674Z,76186.28
2022-11-20T11:05:20.469Z,76186.28
2022-11-20T11:07:52.188Z,76174.03
2022-11-20T11:10:23.282Z,76157.72
2022-11-20T11:12:51.170Z,76147.53
2022-11-20T11:15:29.215Z,76139.38
2022-11-20T11:17:59.070Z,76131.22
2022-11-20T11:20:28.110Z,76129.19
2022-11-20T11:22:58.024Z,76119.00
2022-11-20T11:25:31.735Z,76102.69
2022-11-20T11:28:01.459Z,76078.22
2022-11-20T11:30:32.892Z,76078.22
2022-11-20T11:33:11.690Z,76084.34
2022-11-20T11:35:50.990Z,76074.16
2022-11-20T11:38:24.808Z,76061.91
2022-11-20T11:40:56.017Z,76055.78
2022-11-20T11:43:43.347Z,76053.75
2022-11-20T11:46:27.367Z,76037.44
2022-11-20T11:49:12.435Z,76008.91
2022-11-20T11:51:55.176Z,75964.06
2022-11-20T11:54:28.671Z,75935.50
2022-11-20T11:56:57.620Z,75931.44
2022-11-20T11:59:29.262Z,75933.47
2022-11-20T12:02:02.334Z,75939.59
2022-11-20T12:04:44.341Z,75951.81
2022-11-20T12:07:45.372Z,75966.09
2022-11-20T12:10:06.313Z,75980.34
2022-11-20T12:12:41.061Z,75988.50
2022-11-20T12:15:14.837Z,75992.59
2022-11-20T12:17:42.700Z,75996.66
2022-11-20T12:20:16.520Z,76006.88
2022-11-20T12:22:53.799Z,76006.88
2022-11-20T12:25:25.779Z,76012.97
2022-11-20T12:28:07.882Z,76012.97
2022-11-20T12:30:43.231Z,76017.06
2022-11-20T12:33:46.042Z,76015.03
2022-11-20T12:36:26.505Z,76019.09
2022-11-20T12:39:05.044Z,76015.03
2022-11-20T12:42:07.111Z,76017.06
2022-11-20T12:45:11.212Z,76023.19
2022-11-20T12:47:52.118Z,76021.13
2022-11-20T12:50:29.275Z,76025.22
2022-11-20T12:53:06.382Z,76033.38
2022-11-20T12:55:44.031Z,76033.38
2022-11-20T12:58:18.005Z,76041.53
2022-11-20T13:00:54.132Z,76041.53
2022-11-20T13:03:40.716Z,76045.59
2022-11-20T13:06:17.095Z,76053.75
2022-11-20T13:08:52.820Z,76053.75
2022-11-20T13:11:27.639Z,76057.84
2022-11-20T13:14:13.947Z,76066.00
2022-11-20T13:16:52.142Z,76059.88
2022-11-20T13:19:20.619Z,76057.84
2022-11-20T13:21:51.419Z,76061.91
2022-11-20T13:24:28.923Z,76063.94
2022-11-20T13:27:19.353Z,76059.88
2022-11-20T13:29:48.961Z,76066.00
2022-11-20T13:32:19.494Z,76057.84
2022-11-20T13:34:54.486Z,76066.00
2022-11-20T13:37:31.632Z,76061.91
2022-11-20T13:40:24.337Z,76055.78
2022-11-20T13:43:03.637Z,76051.72
2022-11-20T13:45:33.079Z,76061.91
2022-11-20T13:48:05.900Z,76053.75
2022-11-20T13:50:45.502Z,76049.69
2022-11-20T13:53:28.702Z,76041.53
2022-11-20T13:56:02.580Z,76041.53
2022-11-20T13:58:46.221Z,76045.59
2022-11-20T14:01:19.046Z,76041.53
2022-11-20T14:06:43.155Z,76053.75
2022-11-20T14:09:14.735Z,76053.75
2022-11-20T14:11:49.766Z,76053.75
2022-11-20T14:14:20.137Z,76055.78
2022-11-20T14:16:48.826Z,76057.84
2022-11-20T14:19:28.400Z,76061.91
2022-11-20T14:22:12.511Z,76063.94
2022-11-20T14:24:40.483Z,76066.00
2022-11-20T14:27:16.313Z,76066.00
2022-11-20T14:29:45.583Z,76017.06
2022-11-20T14:32:16.573Z,76021.13
2022-11-20T14:34:47.523Z,76025.22
2022-11-20T14:37:21.800Z,76037.44
2022-11-20T14:39:54.799Z,76033.38
2022-11-20T14:42:26.126Z,76053.75
2022-11-20T14:44:59.319Z,76053.75
2022-11-20T14:47:29.433Z,76063.94
2022-11-20T14:49:59.015Z,76061.91
2022-11-20T14:52:28.472Z,76053.75
2022-11-20T14:54:57.930Z,76049.69
2022-11-20T14:57:29.688Z,76049.69
2022-11-20T15:00:10.627Z,76049.69
2022-11-20T15:02:43.262Z,76057.84
2022-11-20T15:05:11.628Z,76051.72
2022-11-20T15:07:44.469Z,76057.84
2022-11-20T15:10:14.634Z,76059.88
2022-11-20T15:12:49.842Z,76061.91
2022-11-20T15:15:23.006Z,76070.06
2022-11-20T15:17:50.984Z,76074.16
2022-11-20T15:20:19.631Z,76078.22
2022-11-20T15:22:47.396Z,76082.28
2022-11-20T15:25:16.399Z,76078.22
2022-11-20T15:27:46.704Z,76074.16
2022-11-20T15:30:17.775Z,76070.06
2022-11-20T15:32:46.961Z,76066.00
2022-11-20T15:35:15.087Z,76070.06
2022-11-20T15:37:43.581Z,76068.03
2022-11-20T15:40:12.304Z,76066.00
2022-11-20T15:43:00.121Z,76070.06
2022-11-20T15:45:31.104Z,76074.16
2022-11-20T15:47:59.186Z,76078.22
2022-11-20T15:50:33.078Z,76078.22
2022-11-20T15:53:01.219Z,76082.28
2022-11-20T15:55:29.354Z,76086.38
2022-11-20T15:57:57.412Z,76088.41
2022-11-20T16:00:25.241Z,76092.50
2022-11-20T16:02:54.528Z,76090.44
2022-11-20T16:05:24.083Z,76090.44
2022-11-20T16:07:53.149Z,76088.41
2022-11-20T16:10:20.962Z,76086.38
2022-11-20T16:13:06.530Z,76090.44
2022-11-20T16:15:49.926Z,76098.59
2022-11-20T16:18:21.341Z,76110.84
2022-11-20T16:20:51.030Z,76110.84
2022-11-20T16:23:19.530Z,76110.84
2022-11-20T16:25:47.350Z,76114.91
2022-11-20T16:28:18.800Z,76114.91
2022-11-20T16:30:47.726Z,76110.84
2022-11-20T16:33:18.007Z,76110.84
2022-11-20T16:35:47.181Z,76108.81
2022-11-20T16:38:15.050Z,76100.66
2022-11-20T16:40:42.842Z,76102.69
2022-11-20T16:43:12.134Z,76100.66
2022-11-20T16:45:42.834Z,76102.69
2022-11-20T16:48:14.450Z,76098.59
2022-11-20T16:50:49.795Z,76104.72
2022-11-20T16:53:18.256Z,76098.59
2022-11-20T16:55:46.320Z,76098.59
2022-11-20T16:58:14.935Z,76102.69
2022-11-20T17:00:48.324Z,76106.75
2022-11-20T17:03:19.430Z,76112.88
2022-11-20T17:05:48.626Z,76123.06
2022-11-20T17:08:16.385Z,76123.06
2022-11-20T17:10:44.440Z,76119.00
2022-11-20T17:13:12.271Z,76127.16
2022-11-20T17:15:40.046Z,76121.03
2022-11-20T17:18:08.117Z,76129.19
2022-11-20T17:20:36.320Z,76133.25
2022-11-20T17:23:05.434Z,76127.16
2022-11-20T17:25:34.894Z,76125.13
2022-11-20T17:28:02.755Z,76121.03
2022-11-20T17:30:31.354Z,76123.06
2022-11-20T17:32:59.133Z,76114.91
2022-11-20T17:35:27.118Z,76114.91
2022-11-20T17:37:54.929Z,76104.72
2022-11-20T17:40:27.512Z,76114.91
2022-11-20T17:42:56.177Z,76110.84
2022-11-20T17:45:23.996Z,76119.00
2022-11-20T17:47:51.800Z,76114.91
2022-11-20T17:50:19.722Z,76110.84
2022-11-20T17:52:47.546Z,76119.00
2022-11-20T17:55:15.926Z,76119.00
2022-11-20T17:57:52.924Z,76123.06
2022-11-20T18:00:22.248Z,76123.06
2022-11-20T18:02:50.658Z,76127.16
2022-11-20T18:05:18.559Z,76123.06
2022-11-20T18:07:46.776Z,76116.97
2022-11-20T18:10:14.676Z,76114.91
2022-11-20T18:12:42.477Z,76106.75
2022-11-20T18:15:11.856Z,76096.56
2022-11-20T18:17:39.742Z,76096.56
2022-11-20T18:22:57.154Z,76086.38
2022-11-20T18:25:24.922Z,76086.38
2022-11-20T18:27:52.692Z,76078.22
2022-11-20T18:30:22.010Z,76082.28
2022-11-20T18:32:50.187Z,76074.16
2022-11-20T18:35:18.451Z,76078.22
2022-11-20T18:37:46.693Z,76074.16
2022-11-20T18:40:15.233Z,76068.03
2022-11-20T18:43:00.946Z,76066.00
2022-11-20T18:45:30.446Z,76059.88
2022-11-20T18:48:00.180Z,76051.72
2022-11-20T18:50:28.584Z,76057.84
2022-11-20T18:52:56.570Z,76039.47
2022-11-20T18:55:25.949Z,76039.47
2022-11-20T18:57:55.162Z,76045.59
2022-11-20T19:00:25.540Z,76041.53
2022-11-20T19:02:56.295Z,76045.59
2022-11-20T19:05:24.414Z,76041.53
2022-11-20T19:07:52.283Z,76041.53
2022-11-20T19:10:21.198Z,76037.44
2022-11-20T19:12:49.285Z,76043.56
2022-11-20T19:15:17.314Z,76041.53
2022-11-20T19:17:45.143Z,76041.53
2022-11-20T19:20:14.520Z,76045.59
2022-11-20T19:22:42.338Z,76045.59
2022-11-20T19:25:10.480Z,76043.56
2022-11-20T19:27:38.675Z,76037.44
2022-11-20T19:30:07.715Z,76025.22
2022-11-20T19:32:35.712Z,76033.38
2022-11-20T19:35:03.910Z,76027.25
2022-11-20T19:37:35.375Z,76025.22
2022-11-20T19:40:05.323Z,76023.19
2022-11-20T19:42:33.490Z,76027.25
2022-11-20T19:45:01.296Z,76025.22
2022-11-20T19:47:52.604Z,76033.38
2022-11-20T19:50:17.153Z,76031.31
2022-11-20T19:52:46.289Z,76031.31
2022-11-20T19:55:14.124Z,76033.38
2022-11-20T19:57:42.013Z,76025.22
2022-11-20T20:00:12.345Z,76021.13
2022-11-20T20:02:40.297Z,76021.13
2022-11-20T20:05:08.713Z,76021.13
2022-11-20T20:07:36.612Z,76021.13
2022-11-20T20:10:06.696Z,76027.25
2022-11-20T20:12:36.954Z,76029.28
2022-11-20T20:15:05.442Z,76027.25
2022-11-20T20:17:33.364Z,76021.13
2022-11-20T20:20:01.228Z,76025.22
2022-11-20T20:22:29.134Z,76029.28
2022-11-20T20:24:56.988Z,76041.53
2022-11-20T20:27:26.119Z,76053.75
2022-11-20T20:29:53.888Z,76063.94
2022-11-20T20:32:23.978Z,76070.06
2022-11-20T20:34:51.965Z,76068.03
2022-11-20T20:37:19.909Z,76068.03
2022-11-20T20:39:47.788Z,76066.00
2022-11-20T20:42:15.799Z,76055.78
2022-11-20T20:45:02.514Z,76057.84
2022-11-20T20:47:31.481Z,76061.91
2022-11-20T20:49:59.327Z,76053.75
2022-11-20T20:52:27.877Z,76045.59
2022-11-20T20:54:56.008Z,76049.69
2022-11-20T20:57:24.677Z,76045.59
2022-11-20T20:59:53.855Z,76047.63
2022-11-20T21:02:22.086Z,76043.56
2022-11-20T21:04:50.171Z,76049.69
2022-11-20T21:07:18.367Z,76049.69
2022-11-20T21:09:46.538Z,76045.59
2022-11-20T21:12:14.618Z,76051.72
2022-11-20T21:14:44.150Z,76057.84
2022-11-20T21:17:15.514Z,76061.91
2022-11-20T21:19:43.493Z,76057.84
2022-11-20T21:22:10.296Z,76047.63
2022-11-20T21:24:38.073Z,76053.75
2022-11-20T21:27:06.894Z,76049.69
2022-11-20T21:29:34.785Z,76049.69
2022-11-20T21:32:02.637Z,76037.44
2022-11-20T21:34:31.863Z,75943.66
2022-11-20T21:36:59.794Z,75972.22
2022-11-20T21:39:27.628Z,75992.59
2022-11-20T21:41:55.440Z,76008.91
2022-11-20T21:44:31.066Z,76021.13
2022-11-20T21:46:59.642Z,76021.13
2022-11-20T21:49:27.502Z,76037.44
2022-11-20T21:51:57.055Z,76043.56
2022-11-20T21:54:26.972Z,76037.44
2022-11-20T21:56:54.920Z,76037.44
2022-11-20T21:59:23.215Z,76035.41
2022-11-20T22:01:51.172Z,76041.53
2022-11-20T22:04:20.005Z,76033.38
2022-11-20T22:06:48.744Z,76035.41
2022-11-20T22:09:17.956Z,76033.38
2022-11-20T22:11:45.819Z,76045.59
2022-11-20T22:14:21.643Z,76041.53
2022-11-20T22:16:50.766Z,76045.59
2022-11-20T22:19:19.183Z,76045.59
2022-11-20T22:21:47.467Z,76057.84
2022-11-20T22:24:17.260Z,76070.06
2022-11-20T22:26:46.735Z,76078.22
2022-11-20T22:29:16.900Z,76078.22
2022-11-20T22:31:44.812Z,76092.50
2022-11-20T22:34:14.080Z,76090.44
2022-11-20T22:36:42.245Z,76084.34
2022-11-20T22:39:10.604Z,76090.44
2022-11-20T22:41:38.460Z,76096.56
2022-11-20T22:44:08.968Z,76100.66
2022-11-20T22:46:38.781Z,76104.72
2022-11-20T22:49:09.432Z,76102.69
2022-11-20T22:51:39.746Z,76102.69
2022-11-20T22:54:07.896Z,76104.72
2022-11-20T22:56:35.796Z,76098.59
2022-11-20T22:59:03.995Z,76086.38
2022-11-20T23:01:34.769Z,76090.44
2022-11-20T23:04:04.619Z,76090.44
2022-11-20T23:06:34.235Z,76090.44
2022-11-20T23:09:02.631Z,76100.66
2022-11-20T23:11:32.330Z,76094.53
2022-11-20T23:14:01.456Z,76094.53
2022-11-20T23:16:30.911Z,76094.53
2022-11-20T23:19:02.262Z,76098.59
2022-11-20T23:21:30.214Z,76114.91
2022-11-20T23:23:59.255Z,76121.03
2022-11-20T23:26:29.563Z,76129.19
2022-11-20T23:28:59.008Z,76143.47
2022-11-20T23:31:28.735Z,76143.47
2022-11-20T23:33:56.679Z,76151.63
2022-11-20T23:36:25.856Z,76163.84
2022-11-20T23:38:53.689Z,76172.00
2022-11-20T23:41:21.527Z,76169.97
2022-11-20T23:43:49.355Z,76174.03
2022-11-20T23:46:17.273Z,76167.94
2022-11-20T23:48:45.958Z,76169.97
2022-11-20T23:51:14.658Z,76165.88
2022-11-20T23:53:44.018Z,76165.88
2022-11-20T23:56:14.359Z,76167.94
2022-11-20T23:58:42.881Z,76167.94
